Time;durP1;ratioP1;P1;durP2;ratioP2;P2;SDS_P1;SDS_P2;PMS_P1;PMS_P2;Temp;Humidity;BMP_temperature;BMP_pressure;BME280_temperature;BME280_humidity;BME280_pressure;Samples;Min_cycle;Max_cycle;Signal;HPM_P1;HPM_P2
2023/09/16 00:04:14;;;;;;;10.87;9.87;;;19.30;99.90;;;;;;10259519;29;20201;-80
2023/09/16 00:09:16;;;;;;;12.27;11.03;;;19.30;99.90;;;;;;10238951;29;20205;-80
2023/09/16 00:14:21;;;;;;;11.67;10.67;;;19.30;99.90;;;;;;10255252;29;20284;-80
2023/09/16 00:19:24;;;;;;;10.70;9.80;;;19.30;99.90;;;;;;10235555;29;21129;-80
2023/09/16 00:24:29;;;;;;;11.00;10.07;;;19.20;99.90;;;;;;10246957;29;20238;-80
2023/09/16 00:29:31;;;;;;;11.43;10.53;;;19.20;99.90;;;;;;10254271;28;20225;-80
2023/09/16 00:34:34;;;;;;;10.83;9.93;;;19.20;99.90;;;;;;10242068;29;20194;-80
2023/09/16 00:39:38;;;;;;;12.63;11.47;;;19.20;99.90;;;;;;10254416;28;20245;-80
2023/09/16 00:44:40;;;;;;;11.20;10.20;;;19.20;99.90;;;;;;10245388;29;20228;-80
2023/09/16 00:49:43;;;;;;;11.80;10.70;;;19.20;99.90;;;;;;10269329;28;20216;-80
2023/09/16 00:54:50;;;;;;;11.17;10.20;;;19.20;99.90;;;;;;10246581;29;20193;-80
2023/09/16 00:59:52;;;;;;;11.87;10.77;;;19.10;99.90;;;;;;10266236;28;20233;-80
2023/09/16 01:04:57;;;;;;;10.70;9.80;;;19.10;99.90;;;;;;10254499;29;20202;-80
2023/09/16 01:09:59;;;;;;;11.27;10.30;;;19.00;99.90;;;;;;10273698;28;20276;-79
2023/09/16 01:15:01;;;;;;;12.23;11.13;;;19.00;99.90;;;;;;10281570;28;20205;-79
2023/09/16 01:20:08;;;;;;;14.43;10.50;;;19.00;99.90;;;;;;10278867;28;20253;-80
2023/09/16 01:25:12;;;;;;;11.43;10.33;;;18.90;99.90;;;;;;10247542;29;20204;-80
2023/09/16 01:30:14;;;;;;;10.67;9.73;;;18.90;99.90;;;;;;10259785;29;20217;-80
2023/09/16 01:35:20;;;;;;;11.63;10.60;;;18.80;99.90;;;;;;10252949;29;20245;-80
2023/09/16 01:40:26;;;;;;;11.40;10.40;;;18.80;99.90;;;;;;10260549;28;20233;-80
2023/09/16 01:45:40;;;;;;;10.63;9.73;;;18.80;99.90;;;;;;10266939;29;20205;-80
2023/09/16 01:50:42;;;;;;;10.23;9.43;;;18.80;99.90;;;;;;10228041;29;20242;-80
2023/09/16 01:55:46;;;;;;;10.67;9.77;;;18.80;99.90;;;;;;10240184;29;20205;-79
2023/09/16 02:00:50;;;;;;;10.13;9.33;;;18.80;99.90;;;;;;10237311;29;20229;-79
2023/09/16 02:05:52;;;;;;;10.40;9.57;;;18.80;99.90;;;;;;10243967;29;20711;-80
2023/09/16 02:10:55;;;;;;;11.07;10.17;;;18.80;99.90;;;;;;10261929;28;20228;-80
2023/09/16 02:15:57;;;;;;;10.50;9.70;;;18.80;99.90;;;;;;10243912;29;20221;-79
2023/09/16 02:20:59;;;;;;;10.50;9.67;;;18.80;99.90;;;;;;10225436;28;20225;-80
2023/09/16 02:26:03;;;;;;;11.50;10.60;;;18.80;99.90;;;;;;10220308;29;20210;-80
2023/09/16 02:31:05;;;;;;;10.33;9.50;;;18.80;99.90;;;;;;10248179;29;20619;-79
2023/09/16 02:36:07;;;;;;;11.43;10.40;;;18.80;99.90;;;;;;10251081;29;20260;-80
2023/09/16 02:41:15;;;;;;;11.53;10.53;;;18.70;99.90;;;;;;10235705;28;20293;-79
2023/09/16 02:46:17;;;;;;;11.93;10.93;;;18.70;99.90;;;;;;10238214;29;20202;-80
2023/09/16 02:51:19;;;;;;;11.37;10.37;;;18.70;99.90;;;;;;10228505;29;20214;-80
2023/09/16 02:56:23;;;;;;;11.87;10.77;;;18.70;99.90;;;;;;10225290;29;20588;-80
2023/09/16 03:01:25;;;;;;;10.63;9.70;;;18.60;99.90;;;;;;10315546;23;20237;-79
2023/09/16 03:06:27;;;;;;;11.60;10.60;;;18.60;99.90;;;;;;10299033;28;20212;-80
2023/09/16 03:11:31;;;;;;;11.97;10.87;;;18.60;99.90;;;;;;10279519;28;20223;-80
2023/09/16 03:16:35;;;;;;;12.17;11.10;;;18.60;99.90;;;;;;10279420;28;20196;-80
2023/09/16 03:21:37;;;;;;;11.00;10.10;;;18.60;99.90;;;;;;10254287;29;20221;-80
2023/09/16 03:26:42;;;;;;;11.40;10.50;;;18.60;99.90;;;;;;10225638;28;20208;-80
2023/09/16 03:31:48;;;;;;;12.20;11.07;;;18.60;99.90;;;;;;10275551;28;20590;-80
2023/09/16 03:36:55;;;;;;;11.27;10.27;;;18.60;99.90;;;;;;10301761;28;20204;-81
2023/09/16 03:41:58;;;;;;;11.10;10.10;;;18.50;99.90;;;;;;10279863;28;20233;-80
2023/09/16 03:47:01;;;;;;;11.70;10.60;;;18.50;99.90;;;;;;10250039;28;20255;-79
2023/09/16 03:52:06;;;;;;;11.27;10.27;;;18.50;99.90;;;;;;10285655;28;20213;-79
2023/09/16 03:57:10;;;;;;;11.03;10.13;;;18.50;99.90;;;;;;10294411;28;20264;-79
2023/09/16 04:02:12;;;;;;;12.70;10.60;;;18.50;99.90;;;;;;10269198;28;20651;-79
2023/09/16 04:07:14;;;;;;;11.93;10.93;;;18.50;99.90;;;;;;10283927;28;20201;-79
2023/09/16 04:12:18;;;;;;;13.80;12.40;;;18.50;99.90;;;;;;10261665;28;20217;-79
2023/09/16 04:17:20;;;;;;;12.07;11.07;;;18.40;99.90;;;;;;10247770;28;20625;-79
2023/09/16 04:22:24;;;;;;;12.30;11.23;;;18.40;99.90;;;;;;10277320;28;20613;-79
2023/09/16 04:27:28;;;;;;;11.50;8.77;;;18.40;99.90;;;;;;10295275;28;20240;-79
2023/09/16 04:32:30;;;;;;;12.87;11.57;;;18.30;99.90;;;;;;10284091;28;20244;-79
2023/09/16 04:37:32;;;;;;;11.87;10.83;;;18.30;99.90;;;;;;10287222;28;20288;-79
2023/09/16 04:42:37;;;;;;;12.53;11.43;;;18.30;99.90;;;;;;10246359;28;20221;-79
2023/09/16 04:47:40;;;;;;;12.30;11.10;;;18.30;99.90;;;;;;10241983;28;20227;-79
2023/09/16 04:52:43;;;;;;;12.47;11.40;;;18.30;99.90;;;;;;10262096;28;20306;-79
2023/09/16 04:57:46;;;;;;;13.87;12.57;;;18.30;99.90;;;;;;10256326;28;20204;-81
2023/09/16 05:02:50;;;;;;;12.83;11.40;;;18.30;99.90;;;;;;10282324;28;20217;-81
2023/09/16 05:07:52;;;;;;;13.17;11.90;;;18.30;99.90;;;;;;10287914;28;20739;-80
2023/09/16 05:12:56;;;;;;;13.27;12.07;;;18.20;99.90;;;;;;10262124;28;20628;-81
2023/09/16 05:17:58;;;;;;;20.87;14.13;;;18.20;99.90;;;;;;10251203;28;20201;-81
2023/09/16 05:23:01;;;;;;;14.97;13.50;;;18.20;99.90;;;;;;10260470;28;20228;-79
2023/09/16 05:28:05;;;;;;;12.90;11.80;;;18.20;99.90;;;;;;10269252;28;20216;-80
2023/09/16 05:33:08;;;;;;;12.93;11.80;;;18.20;99.90;;;;;;10280849;28;20655;-79
2023/09/16 05:38:10;;;;;;;12.87;11.77;;;18.20;99.90;;;;;;10291006;28;20682;-80
2023/09/16 05:43:13;;;;;;;13.47;12.17;;;18.20;99.90;;;;;;10279929;28;20225;-79
2023/09/16 05:48:19;;;;;;;13.33;12.03;;;18.20;99.90;;;;;;10276028;28;20225;-80
2023/09/16 05:53:22;;;;;;;13.63;12.33;;;18.30;99.90;;;;;;10260160;28;20207;-80
2023/09/16 05:58:27;;;;;;;14.53;13.27;;;18.30;99.90;;;;;;10272301;28;20260;-79
2023/09/16 06:03:31;;;;;;;14.37;13.00;;;18.30;99.90;;;;;;10282433;28;20279;-79
2023/09/16 06:08:33;;;;;;;13.77;12.57;;;18.30;99.90;;;;;;10263284;28;20292;-80
2023/09/16 06:13:37;;;;;;;13.83;12.63;;;18.30;99.90;;;;;;10256479;28;20196;-79
2023/09/16 06:18:40;;;;;;;15.13;13.63;;;18.40;99.90;;;;;;10289219;28;20645;-80
2023/09/16 06:23:43;;;;;;;14.30;13.10;;;18.40;99.90;;;;;;10261508;28;20198;-78
2023/09/16 06:28:47;;;;;;;16.23;14.63;;;18.40;99.90;;;;;;10269691;28;20279;-80
2023/09/16 06:33:51;;;;;;;13.10;11.70;;;18.50;99.90;;;;;;10278260;28;20193;-80
2023/09/16 06:38:53;;;;;;;14.70;13.37;;;18.50;99.90;;;;;;10287835;28;20255;-79
2023/09/16 06:43:57;;;;;;;14.37;13.00;;;18.50;99.90;;;;;;10277757;28;20208;-79
2023/09/16 06:49:00;;;;;;;15.17;13.67;;;18.60;99.90;;;;;;10242502;28;20252;-79
2023/09/16 06:54:02;;;;;;;13.27;12.17;;;18.60;99.90;;;;;;10269769;28;20205;-79
2023/09/16 06:59:06;;;;;;;14.30;12.80;;;18.70;99.90;;;;;;10272048;28;20232;-79
2023/09/16 07:04:08;;;;;;;15.60;14.00;;;18.70;99.90;;;;;;10295506;28;20593;-80
2023/09/16 07:09:12;;;;;;;14.63;13.20;;;18.80;99.90;;;;;;10270059;28;20221;-78
2023/09/16 07:14:16;;;;;;;14.27;12.87;;;18.90;99.90;;;;;;10261577;28;20252;-80
2023/09/16 07:19:18;;;;;;;15.33;13.80;;;19.00;99.90;;;;;;10262201;28;20226;-80
2023/09/16 07:24:20;;;;;;;15.90;14.40;;;19.00;99.90;;;;;;10268470;28;20220;-80
2023/09/16 07:29:24;;;;;;;15.03;13.43;;;19.10;99.90;;;;;;10292318;28;20224;-80
2023/09/16 07:34:26;;;;;;;13.70;12.40;;;19.20;99.90;;;;;;10293996;28;20216;-79
2023/09/16 07:39:28;;;;;;;15.87;13.20;;;19.30;99.90;;;;;;10267498;28;20236;-79
2023/09/16 07:44:31;;;;;;;13.60;12.30;;;19.40;99.90;;;;;;10264752;28;20817;-79
2023/09/16 07:49:33;;;;;;;15.47;13.87;;;19.50;99.90;;;;;;10266947;28;20280;-80
2023/09/16 07:54:35;;;;;;;14.23;12.93;;;19.60;99.90;;;;;;10283825;28;20208;-79
2023/09/16 07:59:39;;;;;;;16.20;14.70;;;19.70;99.90;;;;;;10296129;28;20228;-80
2023/09/16 08:04:41;;;;;;;12.90;11.60;;;19.80;99.90;;;;;;10259879;28;20212;-80
2023/09/16 08:09:44;;;;;;;13.50;12.20;;;19.90;99.90;;;;;;10265340;28;20778;-80
2023/09/16 08:14:47;;;;;;;14.17;12.73;;;20.00;99.90;;;;;;10276636;28;20200;-80
2023/09/16 08:19:49;;;;;;;16.43;11.70;;;20.10;99.90;;;;;;10267144;28;20224;-79
2023/09/16 08:24:51;;;;;;;13.83;12.23;;;20.20;99.90;;;;;;10293863;28;20567;-80
2023/09/16 08:29:55;;;;;;;12.10;10.90;;;20.30;99.90;;;;;;10301567;28;20216;-80
2023/09/16 08:34:57;;;;;;;12.13;10.80;;;20.40;99.90;;;;;;10296737;28;20289;-80
2023/09/16 08:39:59;;;;;;;12.50;11.30;;;20.50;99.90;;;;;;10270556;28;20632;-79
2023/09/16 08:45:05;;;;;;;13.00;11.90;;;20.60;99.90;;;;;;10295581;28;20204;-80
2023/09/16 08:50:09;;;;;;;13.30;12.10;;;20.70;99.90;;;;;;10282659;28;20221;-80
2023/09/16 08:55:13;;;;;;;11.40;10.30;;;20.80;99.90;;;;;;10296744;28;20197;-79
2023/09/16 09:00:17;;;;;;;11.27;10.23;;;20.80;99.90;;;;;;10357127;23;20257;-80
2023/09/16 09:05:23;;;;;;;10.60;9.67;;;20.90;99.90;;;;;;10370039;28;20199;-81
2023/09/16 09:10:25;;;;;;;10.63;9.60;;;21.00;99.90;;;;;;10370401;28;20662;-81
2023/09/16 09:15:29;;;;;;;10.37;9.20;;;21.10;99.90;;;;;;10370167;28;20188;-81
2023/09/16 09:20:32;;;;;;;9.73;8.83;;;21.10;99.90;;;;;;10355148;28;20215;-81
2023/09/16 09:25:36;;;;;;;12.93;11.00;;;21.20;99.90;;;;;;10397091;28;20259;-79
2023/09/16 09:30:41;;;;;;;10.30;9.40;;;21.30;99.90;;;;;;10412938;28;20222;-79
2023/09/16 09:35:43;;;;;;;9.70;8.90;;;21.30;99.90;;;;;;10414954;28;20183;-80
2023/09/16 09:40:58;;;;;;;10.03;8.67;;;21.40;99.90;;;;;;10413680;28;20227;-80
2023/09/16 09:46:02;;;;;;;9.50;8.50;;;21.60;99.90;;;;;;10390174;28;20685;-80
2023/09/16 09:51:04;;;;;;;9.00;8.30;;;21.90;99.90;;;;;;10381398;28;20215;-80
2023/09/16 09:56:07;;;;;;;7.37;6.77;;;22.30;99.90;;;;;;10385039;28;20203;-81
2023/09/16 10:01:11;;;;;;;6.70;6.20;;;22.70;99.90;;;;;;10385058;28;20340;-81
2023/09/16 10:06:15;;;;;;;8.30;7.70;;;23.00;99.90;;;;;;10385549;28;20196;-81
2023/09/16 10:11:20;;;;;;;6.97;6.47;;;23.10;99.90;;;;;;10366541;28;20215;-81
2023/09/16 10:16:24;;;;;;;7.53;6.93;;;23.10;99.90;;;;;;10384336;28;20207;-81
2023/09/16 10:21:26;;;;;;;7.00;6.10;;;23.10;99.90;;;;;;10383580;28;20231;-81
2023/09/16 10:26:28;;;;;;;7.13;6.50;;;23.00;99.90;;;;;;10384605;28;20202;-81
2023/09/16 10:31:33;;;;;;;7.10;6.50;;;22.90;99.90;;;;;;10384555;28;20273;-81
2023/09/16 10:36:37;;;;;;;6.77;6.27;;;22.90;99.90;;;;;;10384928;28;20196;-80
2023/09/16 10:41:40;;;;;;;5.83;5.43;;;22.90;99.90;;;;;;10366293;28;20219;-81
2023/09/16 10:46:44;;;;;;;5.80;5.40;;;23.00;99.90;;;;;;10384569;28;20195;-81
2023/09/16 10:51:46;;;;;;;6.73;6.13;;;22.90;99.90;;;;;;10383350;28;20714;-81
2023/09/16 10:56:50;;;;;;;5.53;5.23;;;22.80;99.90;;;;;;10383824;28;20282;-81
2023/09/16 11:01:58;;;;;;;8.20;7.50;;;22.80;99.90;;;;;;10383160;28;20257;-80
2023/09/16 11:07:00;;;;;;;6.10;5.70;;;22.80;99.90;;;;;;10384141;28;20214;-81
2023/09/16 11:12:02;;;;;;;5.37;5.00;;;22.70;99.90;;;;;;10383729;28;20274;-81
2023/09/16 11:17:14;;;;;;;5.07;4.67;;;22.70;99.90;;;;;;10384956;28;20205;-81
2023/09/16 11:22:17;;;;;;;4.63;4.33;;;22.70;99.90;;;;;;10396909;28;20215;-80
2023/09/16 11:27:19;;;;;;;4.80;4.50;;;22.80;99.90;;;;;;10401162;28;20262;-80
2023/09/16 11:32:24;;;;;;;4.93;4.63;;;22.90;99.90;;;;;;10382638;28;20200;-81
2023/09/16 11:37:31;;;;;;;4.37;3.97;;;22.90;99.90;;;;;;10364937;28;20299;-81
2023/09/16 11:42:33;;;;;;;4.10;3.87;;;23.00;99.80;;;;;;10382803;28;20230;-81
2023/09/16 11:47:37;;;;;;;4.30;4.00;;;23.10;99.90;;;;;;10382329;28;20195;-80
2023/09/16 11:52:39;;;;;;;3.73;3.30;;;23.10;99.90;;;;;;10383830;28;20207;-80
2023/09/16 11:57:41;;;;;;;4.10;3.80;;;23.20;98.50;;;;;;10388783;28;20203;-80
2023/09/16 12:02:45;;;;;;;3.70;3.50;;;23.30;97.80;;;;;;10372360;28;20219;-81
2023/09/16 12:07:48;;;;;;;4.20;3.90;;;23.40;98.00;;;;;;10390346;28;20207;-81
2023/09/16 12:12:51;;;;;;;3.50;3.30;;;23.50;98.50;;;;;;10389684;28;20221;-81
2023/09/16 12:17:56;;;;;;;3.70;3.50;;;23.60;98.10;;;;;;10389685;28;20694;-80
2023/09/16 12:22:59;;;;;;;4.20;3.90;;;23.60;98.30;;;;;;10384789;28;20215;-80
2023/09/16 12:28:01;;;;;;;3.83;3.63;;;23.60;97.70;;;;;;10388387;28;20222;-81
2023/09/16 12:33:05;;;;;;;4.17;3.73;;;23.60;98.30;;;;;;10371643;28;20230;-81
2023/09/16 12:38:08;;;;;;;3.87;3.67;;;23.60;98.60;;;;;;10389133;28;20199;-81
2023/09/16 12:43:10;;;;;;;4.27;3.97;;;23.50;98.90;;;;;;10365940;28;20317;-81
2023/09/16 12:48:14;;;;;;;3.50;3.20;;;23.50;98.60;;;;;;10383936;28;20196;-81
2023/09/16 12:53:16;;;;;;;3.73;3.53;;;23.50;98.30;;;;;;10379424;28;20214;-81
2023/09/16 12:58:18;;;;;;;3.60;3.40;;;23.60;98.70;;;;;;10387817;28;20206;-81
2023/09/16 13:03:23;;;;;;;3.70;3.50;;;23.60;98.60;;;;;;10385318;28;20227;-81
2023/09/16 13:08:26;;;;;;;5.20;4.43;;;23.70;98.90;;;;;;10369830;28;20275;-81
2023/09/16 13:13:30;;;;;;;3.80;3.50;;;23.90;99.20;;;;;;10386707;28;20211;-80
2023/09/16 13:18:36;;;;;;;3.60;3.13;;;23.90;97.40;;;;;;10386972;28;20203;-81
2023/09/16 13:23:49;;;;;;;3.90;3.70;;;24.00;97.90;;;;;;10367250;28;20219;-81
2023/09/16 13:28:55;;;;;;;3.30;3.20;;;24.00;97.90;;;;;;10385619;28;20591;-81
2023/09/16 13:34:00;;;;;;;4.10;3.60;;;24.00;97.90;;;;;;10369574;28;20666;-81
2023/09/16 13:39:04;;;;;;;3.50;3.30;;;24.10;98.30;;;;;;10369834;28;20245;-81
2023/09/16 13:44:06;;;;;;;2.87;2.70;;;24.10;97.20;;;;;;10387978;28;20226;-81
2023/09/16 13:49:09;;;;;;;3.63;3.43;;;24.00;97.20;;;;;;10369383;28;20215;-81
2023/09/16 13:54:11;;;;;;;3.13;2.93;;;24.00;98.20;;;;;;10386787;28;20204;-81
2023/09/16 13:59:14;;;;;;;3.80;3.60;;;24.00;98.20;;;;;;10386114;28;20231;-81
2023/09/16 14:04:18;;;;;;;3.93;3.63;;;24.30;97.40;;;;;;10368900;28;20306;-81
2023/09/16 14:09:20;;;;;;;3.40;3.20;;;24.50;97.60;;;;;;10386425;28;20219;-80
2023/09/16 14:14:22;;;;;;;3.70;3.50;;;24.80;96.40;;;;;;10383943;28;20199;-81
2023/09/16 14:19:26;;;;;;;4.07;3.77;;;25.00;96.80;;;;;;10385448;28;20674;-81
2023/09/16 14:24:28;;;;;;;3.63;3.37;;;25.00;96.50;;;;;;10386357;28;20215;-81
2023/09/16 14:29:31;;;;;;;3.10;2.90;;;25.10;96.30;;;;;;10385436;28;20230;-81
2023/09/16 14:34:35;;;;;;;3.67;3.37;;;25.10;96.10;;;;;;10385228;28;20203;-81
2023/09/16 14:39:37;;;;;;;3.27;3.07;;;25.10;95.30;;;;;;10385686;28;20255;-81
2023/09/16 14:44:40;;;;;;;2.80;2.60;;;25.10;94.80;;;;;;10386014;28;20242;-81
2023/09/16 14:49:43;;;;;;;6.47;3.20;;;25.10;96.10;;;;;;10385260;28;20281;-81
2023/09/16 14:54:45;;;;;;;3.50;3.30;;;25.00;95.70;;;;;;10384622;28;20199;-81
2023/09/16 14:59:47;;;;;;;3.53;3.33;;;25.10;95.70;;;;;;10384852;28;20237;-81
2023/09/16 15:04:55;;;;;;;2.83;2.73;;;25.20;95.60;;;;;;10384874;28;20207;-82
2023/09/16 15:09:58;;;;;;;3.03;2.83;;;25.30;96.10;;;;;;10385571;28;20342;-82
2023/09/16 15:15:00;;;;;;;2.70;2.60;;;25.30;95.80;;;;;;10385292;28;20202;-81
2023/09/16 15:20:03;;;;;;;3.20;3.00;;;25.50;95.60;;;;;;10384426;28;20254;-81
2023/09/16 15:25:06;;;;;;;3.30;3.10;;;25.60;95.00;;;;;;10384613;28;20219;-81
2023/09/16 15:30:10;;;;;;;3.00;2.80;;;25.70;94.20;;;;;;10384165;28;20223;-81
2023/09/16 15:35:13;;;;;;;3.07;2.87;;;25.80;93.40;;;;;;10384560;28;20214;-81
2023/09/16 15:40:15;;;;;;;2.70;2.50;;;25.90;93.00;;;;;;10384138;28;20226;-81
2023/09/16 15:45:18;;;;;;;3.57;3.37;;;25.90;92.00;;;;;;10384246;28;20294;-81
2023/09/16 15:50:21;;;;;;;3.80;3.60;;;25.80;92.80;;;;;;10366727;28;20230;-81
2023/09/16 15:55:24;;;;;;;3.10;2.90;;;25.80;92.90;;;;;;10384977;28;20580;-81
2023/09/16 16:00:26;;;;;;;3.20;3.00;;;25.60;93.50;;;;;;10383442;28;20682;-82
2023/09/16 16:05:30;;;;;;;3.07;2.87;;;25.50;94.10;;;;;;10384930;28;20588;-81
2023/09/16 16:10:32;;;;;;;3.47;3.27;;;25.30;95.70;;;;;;10389381;28;20230;-81
2023/09/16 16:15:34;;;;;;;3.23;3.03;;;25.00;96.70;;;;;;10392013;28;20198;-82
2023/09/16 16:20:41;;;;;;;3.00;2.80;;;24.80;97.60;;;;;;10382011;28;20223;-81
2023/09/16 16:25:44;;;;;;;4.70;4.40;;;24.60;97.00;;;;;;10382885;28;20558;-81
2023/09/16 16:30:46;;;;;;;3.43;3.13;;;24.50;97.00;;;;;;10383240;28;20225;-81
2023/09/16 16:35:50;;;;;;;5.13;3.17;;;24.40;97.60;;;;;;10383185;28;20195;-81
2023/09/16 16:40:52;;;;;;;2.73;2.57;;;24.40;97.90;;;;;;10385084;28;20258;-81
2023/09/16 16:45:54;;;;;;;5.63;3.60;;;24.50;97.30;;;;;;10390421;28;20207;-82
2023/09/16 16:50:58;;;;;;;3.10;2.90;;;24.60;97.40;;;;;;10390316;28;20227;-81
2023/09/16 16:56:00;;;;;;;3.30;3.00;;;24.70;97.60;;;;;;10390278;28;20210;-82
2023/09/16 17:01:02;;;;;;;3.70;3.40;;;24.70;97.90;;;;;;10371564;28;20246;-82
2023/09/16 17:06:07;;;;;;;3.33;3.13;;;24.60;98.00;;;;;;10372768;28;20705;-81
2023/09/16 17:11:10;;;;;;;3.20;3.00;;;24.60;98.10;;;;;;10371025;28;20218;-81
2023/09/16 17:16:12;;;;;;;3.80;3.50;;;24.50;98.10;;;;;;10389562;28;20195;-81
2023/09/16 17:21:16;;;;;;;4.00;3.60;;;24.40;98.50;;;;;;10389232;28;20223;-81
2023/09/16 17:26:18;;;;;;;3.57;3.37;;;24.20;98.80;;;;;;10374115;28;20197;-81
2023/09/16 17:31:22;;;;;;;4.60;4.30;;;24.00;99.20;;;;;;10403854;28;20230;-81
2023/09/16 17:36:25;;;;;;;5.13;4.73;;;23.80;99.50;;;;;;10397309;28;20207;-80
2023/09/16 17:41:28;;;;;;;4.10;3.80;;;23.70;99.30;;;;;;10413773;28;20322;-80
2023/09/16 17:46:30;;;;;;;4.43;4.03;;;23.60;99.40;;;;;;10397205;28;20214;-80
2023/09/16 17:51:33;;;;;;;4.40;4.00;;;23.50;99.20;;;;;;10399348;28;20246;-81
2023/09/16 17:56:35;;;;;;;3.70;3.40;;;23.40;99.10;;;;;;10385367;28;20617;-81
2023/09/16 18:01:37;;;;;;;3.73;3.43;;;23.40;99.40;;;;;;10365481;28;20270;-81
2023/09/16 18:06:41;;;;;;;4.03;3.83;;;23.40;99.60;;;;;;10382757;28;20191;-81
2023/09/16 18:11:44;;;;;;;4.33;4.03;;;23.30;99.40;;;;;;10384332;28;20216;-81
2023/09/16 18:16:46;;;;;;;3.80;3.60;;;23.30;99.60;;;;;;10384089;28;20206;-81
2023/09/16 18:21:49;;;;;;;4.17;3.90;;;23.30;99.40;;;;;;10382640;28;20226;-81
2023/09/16 18:26:51;;;;;;;4.10;3.90;;;23.30;99.90;;;;;;10382930;28;20202;-81
2023/09/16 18:31:55;;;;;;;4.07;3.70;;;23.30;99.80;;;;;;10382737;28;20732;-81
2023/09/16 18:36:58;;;;;;;4.30;4.00;;;23.30;99.70;;;;;;10384337;28;20511;-81
2023/09/16 18:42:00;;;;;;;4.80;4.40;;;23.30;99.70;;;;;;10382662;28;20239;-81
2023/09/16 18:47:03;;;;;;;4.33;3.93;;;23.40;99.90;;;;;;10381922;28;20199;-81
2023/09/16 18:52:07;;;;;;;6.70;6.13;;;23.40;99.90;;;;;;10383660;28;20222;-81
2023/09/16 18:57:09;;;;;;;7.40;6.80;;;23.40;99.90;;;;;;10384266;28;20198;-81
2023/09/16 19:02:12;;;;;;;5.93;5.43;;;23.30;99.90;;;;;;10350399;28;20287;-81
2023/09/16 19:07:16;;;;;;;5.17;4.87;;;23.30;99.90;;;;;;10383921;28;20207;-81
2023/09/16 19:12:18;;;;;;;4.20;3.80;;;23.20;99.90;;;;;;10383600;28;20283;-81
2023/09/16 19:17:20;;;;;;;4.77;4.33;;;23.20;99.90;;;;;;10383584;28;20211;-80
2023/09/16 19:22:23;;;;;;;4.70;4.40;;;23.20;99.90;;;;;;10365310;28;20250;-81
2023/09/16 19:27:25;;;;;;;5.40;5.00;;;23.10;99.90;;;;;;10365837;28;20207;-81
2023/09/16 19:32:27;;;;;;;5.77;5.37;;;23.10;99.90;;;;;;10382236;28;20227;-81
2023/09/16 19:37:31;;;;;;;5.30;4.87;;;23.00;99.90;;;;;;10382777;28;20207;-81
2023/09/16 19:42:33;;;;;;;5.83;5.30;;;23.00;99.90;;;;;;10381762;28;20223;-81
2023/09/16 19:47:35;;;;;;;5.70;5.23;;;22.90;99.90;;;;;;10382349;28;20669;-80
2023/09/16 19:52:39;;;;;;;5.90;5.17;;;22.90;99.90;;;;;;10381959;28;20245;-81
2023/09/16 19:57:41;;;;;;;5.90;5.40;;;22.90;99.90;;;;;;10381980;28;20199;-81
2023/09/16 20:02:43;;;;;;;5.33;4.93;;;22.80;99.90;;;;;;10363940;28;20227;-81
2023/09/16 20:07:47;;;;;;;5.87;5.47;;;22.80;99.90;;;;;;10382255;28;20195;-81
2023/09/16 20:12:49;;;;;;;5.60;5.20;;;22.80;99.90;;;;;;10381664;28;20215;-81
2023/09/16 20:17:52;;;;;;;4.80;4.50;;;22.80;99.90;;;;;;10385958;28;20216;-81
2023/09/16 20:22:56;;;;;;;5.70;5.20;;;22.80;99.90;;;;;;10370860;28;20254;-81
2023/09/16 20:27:59;;;;;;;5.77;5.37;;;22.80;99.90;;;;;;10389527;28;20211;-80
2023/09/16 20:33:02;;;;;;;5.10;4.60;;;22.80;99.90;;;;;;10389329;28;20223;-81
2023/09/16 20:38:05;;;;;;;5.50;5.10;;;22.80;99.90;;;;;;10372429;28;20582;-81
2023/09/16 20:43:07;;;;;;;5.63;5.30;;;22.80;99.90;;;;;;10371216;28;20227;-81
2023/09/16 20:48:09;;;;;;;5.87;4.93;;;22.80;99.90;;;;;;10388884;28;20213;-81
2023/09/16 20:53:13;;;;;;;5.50;5.10;;;22.80;99.90;;;;;;10389651;28;20307;-81
2023/09/16 20:58:17;;;;;;;5.20;4.60;;;22.70;99.90;;;;;;10388700;28;20418;-81
2023/09/16 21:03:19;;;;;;;5.83;5.33;;;22.70;99.90;;;;;;10388576;28;20223;-81
2023/09/16 21:08:22;;;;;;;5.00;4.60;;;22.80;99.90;;;;;;10387256;28;20204;-81
2023/09/16 21:13:25;;;;;;;5.07;4.60;;;22.80;99.90;;;;;;10387775;28;20579;-81
2023/09/16 21:18:27;;;;;;;4.83;4.53;;;22.80;99.90;;;;;;10385511;28;20218;-81
2023/09/16 21:23:30;;;;;;;4.97;4.60;;;22.80;99.90;;;;;;10385016;28;20218;-81
2023/09/16 21:28:33;;;;;;;5.67;5.30;;;22.80;99.90;;;;;;10369163;28;20297;-80
2023/09/16 21:33:35;;;;;;;5.10;4.80;;;22.80;99.90;;;;;;10383873;28;20655;-80
2023/09/16 21:38:38;;;;;;;5.60;5.10;;;22.80;99.90;;;;;;10387433;28;20203;-81
2023/09/16 21:43:41;;;;;;;5.40;5.00;;;22.70;99.90;;;;;;10386242;28;20226;-81
2023/09/16 21:48:43;;;;;;;5.00;4.60;;;22.70;99.90;;;;;;10385373;28;20227;-80
2023/09/16 21:53:46;;;;;;;5.57;5.17;;;22.70;99.90;;;;;;10367492;28;20195;-81
2023/09/16 21:58:51;;;;;;;4.27;3.97;;;22.70;99.90;;;;;;10367551;28;20773;-81
2023/09/16 22:03:53;;;;;;;5.50;4.20;;;22.60;99.90;;;;;;10386041;28;20694;-81
2023/09/16 22:08:56;;;;;;;5.30;5.00;;;22.60;99.90;;;;;;10385606;28;20223;-81
2023/09/16 22:13:58;;;;;;;4.80;4.50;;;22.60;99.90;;;;;;10381839;28;20286;-81
2023/09/16 22:19:01;;;;;;;5.40;4.90;;;22.60;99.90;;;;;;10351289;28;20230;-81
2023/09/16 22:24:04;;;;;;;4.73;4.43;;;22.60;99.90;;;;;;10384891;28;20223;-81
2023/09/16 22:29:06;;;;;;;4.80;4.40;;;22.50;99.90;;;;;;10383589;28;20224;-81
2023/09/16 22:34:10;;;;;;;5.10;4.70;;;22.50;99.90;;;;;;10384390;28;20251;-80
2023/09/16 22:39:14;;;;;;;4.70;4.40;;;22.40;99.90;;;;;;10383507;28;20648;-80
2023/09/16 22:44:16;;;;;;;4.80;4.40;;;22.40;99.90;;;;;;10383421;28;20226;-81
2023/09/16 22:49:18;;;;;;;5.00;4.50;;;22.40;99.90;;;;;;10366366;28;20225;-81
2023/09/16 22:54:22;;;;;;;5.83;5.33;;;22.30;99.90;;;;;;10384153;28;20196;-81
2023/09/16 22:59:24;;;;;;;4.60;4.20;;;22.30;99.90;;;;;;10383704;28;20231;-81
2023/09/16 23:04:26;;;;;;;4.93;4.60;;;22.30;99.90;;;;;;10385059;28;20367;-81
2023/09/16 23:09:29;;;;;;;4.43;4.13;;;22.30;99.90;;;;;;10366621;28;20341;-81
2023/09/16 23:14:32;;;;;;;4.33;4.03;;;22.30;99.90;;;;;;10383387;28;20214;-81
2023/09/16 23:19:34;;;;;;;5.27;4.90;;;22.20;99.90;;;;;;10383055;28;20216;-81
2023/09/16 23:24:37;;;;;;;4.67;4.37;;;22.20;99.90;;;;;;10364265;28;20573;-81
2023/09/16 23:29:39;;;;;;;4.70;4.40;;;22.20;99.90;;;;;;10383715;28;20226;-81
2023/09/16 23:34:41;;;;;;;3.90;3.70;;;22.20;99.90;;;;;;10382650;28;20222;-81
2023/09/16 23:39:45;;;;;;;4.00;3.80;;;22.20;99.90;;;;;;10366119;28;20215;-81
2023/09/16 23:44:51;;;;;;;3.73;3.53;;;22.20;99.90;;;;;;10382283;28;20246;-80
2023/09/16 23:49:53;;;;;;;4.33;4.03;;;22.20;99.90;;;;;;10383404;28;20215;-81
2023/09/16 23:54:57;;;;;;;4.10;3.80;;;22.20;99.90;;;;;;10390783;28;20195;-80
2023/09/16 23:59:59;;;;;;;4.10;3.80;;;22.10;99.90;;;;;;10389973;28;20231;-81
